sensor_id;sensor_type;location;lat;lon;timestamp;temperature;humidity
7958;DHT22;4024;52.172;5.378;2023-01-10T00:01:26;9.00;99.90
7958;DHT22;4024;52.172;5.378;2023-01-10T00:03:52;8.90;99.90
7958;DHT22;4024;52.172;5.378;2023-01-10T00:06:18;8.90;99.90
7958;DHT22;4024;52.172;5.378;2023-01-10T00:08:44;8.90;99.90
7958;DHT22;4024;52.172;5.378;2023-01-10T00:11:10;8.90;99.90
7958;DHT22;4024;52.172;5.378;2023-01-10T00:13:55;8.90;99.90
7958;DHT22;4024;52.172;5.378;2023-01-10T00:16:21;8.90;99.90
7958;DHT22;4024;52.172;5.378;2023-01-10T00:18:47;8.90;99.90
7958;DHT22;4024;52.172;5.378;2023-01-10T00:21:14;8.90;99.90
7958;DHT22;4024;52.172;5.378;2023-01-10T00:23:41;8.90;99.90
7958;DHT22;4024;52.172;5.378;2023-01-10T00:26:09;8.90;99.90
7958;DHT22;4024;52.172;5.378;2023-01-10T00:28:35;8.90;99.90
7958;DHT22;4024;52.172;5.378;2023-01-10T00:31:01;9.00;99.90
7958;DHT22;4024;52.172;5.378;2023-01-10T00:33:32;9.00;99.90
7958;DHT22;4024;52.172;5.378;2023-01-10T00:35:58;9.00;99.90
7958;DHT22;4024;52.172;5.378;2023-01-10T00:38:24;9.00;99.90
7958;DHT22;4024;52.172;5.378;2023-01-10T00:40:54;9.00;99.90
7958;DHT22;4024;52.172;5.378;2023-01-10T00:43:19;9.00;99.90
7958;DHT22;4024;52.172;5.378;2023-01-10T00:46:06;9.10;99.90
7958;DHT22;4024;52.172;5.378;2023-01-10T00:48:32;9.00;99.90
7958;DHT22;4024;52.172;5.378;2023-01-10T00:50:57;9.00;99.90
7958;DHT22;4024;52.172;5.378;2023-01-10T00:53:23;9.00;99.90
7958;DHT22;4024;52.172;5.378;2023-01-10T00:55:49;9.00;99.90
7958;DHT22;4024;52.172;5.378;2023-01-10T00:58:15;9.00;99.90
7958;DHT22;4024;52.172;5.378;2023-01-10T01:00:42;9.00;99.90
7958;DHT22;4024;52.172;5.378;2023-01-10T01:03:11;9.00;99.90
7958;DHT22;4024;52.172;5.378;2023-01-10T01:05:42;9.00;99.90
7958;DHT22;4024;52.172;5.378;2023-01-10T01:08:09;9.00;99.90
7958;DHT22;4024;52.172;5.378;2023-01-10T01:10:35;9.00;99.90
7958;DHT22;4024;52.172;5.378;2023-01-10T01:13:08;9.00;99.90
7958;DHT22;4024;52.172;5.378;2023-01-10T01:15:34;9.00;99.90
7958;DHT22;4024;52.172;5.378;2023-01-10T01:18:00;9.00;99.90
7958;DHT22;4024;52.172;5.378;2023-01-10T01:20:26;9.00;99.90
7958;DHT22;4024;52.172;5.378;2023-01-10T01:22:52;9.00;99.90
7958;DHT22;4024;52.172;5.378;2023-01-10T01:25:18;9.00;99.90
7958;DHT22;4024;52.172;5.378;2023-01-10T01:27:43;9.00;99.90
7958;DHT22;4024;52.172;5.378;2023-01-10T01:30:10;9.00;99.90
7958;DHT22;4024;52.172;5.378;2023-01-10T01:32:36;9.00;99.90
7958;DHT22;4024;52.172;5.378;2023-01-10T01:35:02;9.00;99.90
7958;DHT22;4024;52.172;5.378;2023-01-10T01:37:27;9.00;99.90
7958;DHT22;4024;52.172;5.378;2023-01-10T01:39:53;9.00;99.90
7958;DHT22;4024;52.172;5.378;2023-01-10T01:42:25;9.00;99.90
7958;DHT22;4024;52.172;5.378;2023-01-10T01:47:58;9.00;99.90
7958;DHT22;4024;52.172;5.378;2023-01-10T01:50:55;9.00;99.90
7958;DHT22;4024;52.172;5.378;2023-01-10T01:53:28;9.00;99.90
7958;DHT22;4024;52.172;5.378;2023-01-10T01:56:00;9.00;99.90
7958;DHT22;4024;52.172;5.378;2023-01-10T01:58:38;9.00;99.90
7958;DHT22;4024;52.172;5.378;2023-01-10T02:01:05;9.00;99.90
7958;DHT22;4024;52.172;5.378;2023-01-10T02:03:32;9.10;99.90
7958;DHT22;4024;52.172;5.378;2023-01-10T02:05:58;9.00;99.90
7958;DHT22;4024;52.172;5.378;2023-01-10T02:08:23;9.00;99.90
7958;DHT22;4024;52.172;5.378;2023-01-10T02:11:00;9.00;99.90
7958;DHT22;4024;52.172;5.378;2023-01-10T02:13:27;9.00;99.90
7958;DHT22;4024;52.172;5.378;2023-01-10T02:15:52;9.00;99.90
7958;DHT22;4024;52.172;5.378;2023-01-10T02:18:19;9.00;99.90
7958;DHT22;4024;52.172;5.378;2023-01-10T02:24:14;9.00;99.90
7958;DHT22;4024;52.172;5.378;2023-01-10T02:38:08;9.00;99.90
7958;DHT22;4024;52.172;5.378;2023-01-10T02:43:37;9.00;99.90
7958;DHT22;4024;52.172;5.378;2023-01-10T02:46:10;9.00;99.90
7958;DHT22;4024;52.172;5.378;2023-01-10T02:48:38;9.10;99.90
7958;DHT22;4024;52.172;5.378;2023-01-10T02:51:07;9.00;99.90
7958;DHT22;4024;52.172;5.378;2023-01-10T02:53:39;9.10;99.90
7958;DHT22;4024;52.172;5.378;2023-01-10T02:56:33;9.10;99.90
7958;DHT22;4024;52.172;5.378;2023-01-10T03:10:46;9.20;99.90
7958;DHT22;4024;52.172;5.378;2023-01-10T03:14:04;9.20;99.90
7958;DHT22;4024;52.172;5.378;2023-01-10T03:16:07;9.20;99.90
7958;DHT22;4024;52.172;5.378;2023-01-10T03:18:42;9.20;99.90
7958;DHT22;4024;52.172;5.378;2023-01-10T03:21:10;9.20;99.90
7958;DHT22;4024;52.172;5.378;2023-01-10T03:23:37;9.20;99.90
7958;DHT22;4024;52.172;5.378;2023-01-10T03:26:05;9.20;99.90
7958;DHT22;4024;52.172;5.378;2023-01-10T03:31:12;9.20;99.90
7958;DHT22;4024;52.172;5.378;2023-01-10T03:33:39;9.20;99.90
7958;DHT22;4024;52.172;5.378;2023-01-10T03:42:06;9.20;99.90
7958;DHT22;4024;52.172;5.378;2023-01-10T03:47:46;9.30;99.90
7958;DHT22;4024;52.172;5.378;2023-01-10T03:50:18;9.30;99.90
7958;DHT22;4024;52.172;5.378;2023-01-10T03:52:44;9.20;99.90
7958;DHT22;4024;52.172;5.378;2023-01-10T03:55:12;9.30;99.90
7958;DHT22;4024;52.172;5.378;2023-01-10T03:57:41;9.20;99.90
7958;DHT22;4024;52.172;5.378;2023-01-10T04:00:07;9.30;99.90
7958;DHT22;4024;52.172;5.378;2023-01-10T04:02:33;9.30;99.90
7958;DHT22;4024;52.172;5.378;2023-01-10T04:04:59;9.30;99.90
7958;DHT22;4024;52.172;5.378;2023-01-10T04:07:25;9.30;99.90
7958;DHT22;4024;52.172;5.378;2023-01-10T04:09:51;9.30;99.90
7958;DHT22;4024;52.172;5.378;2023-01-10T04:12:17;9.20;99.90
7958;DHT22;4024;52.172;5.378;2023-01-10T04:14:43;9.20;99.90
7958;DHT22;4024;52.172;5.378;2023-01-10T04:17:13;9.30;99.90
7958;DHT22;4024;52.172;5.378;2023-01-10T04:19:40;9.30;99.90
7958;DHT22;4024;52.172;5.378;2023-01-10T04:22:06;9.20;99.90
7958;DHT22;4024;52.172;5.378;2023-01-10T04:24:32;9.30;99.90
7958;DHT22;4024;52.172;5.378;2023-01-10T04:26:57;9.30;99.90
7958;DHT22;4024;52.172;5.378;2023-01-10T04:29:23;9.20;99.90
7958;DHT22;4024;52.172;5.378;2023-01-10T04:31:49;9.30;99.90
7958;DHT22;4024;52.172;5.378;2023-01-10T04:34:15;9.30;99.90
7958;DHT22;4024;52.172;5.378;2023-01-10T04:36:40;9.30;99.90
7958;DHT22;4024;52.172;5.378;2023-01-10T04:39:07;9.30;99.90
7958;DHT22;4024;52.172;5.378;2023-01-10T04:41:32;9.30;99.90
7958;DHT22;4024;52.172;5.378;2023-01-10T04:43:58;9.30;99.90
7958;DHT22;4024;52.172;5.378;2023-01-10T04:46:24;9.30;99.90
7958;DHT22;4024;52.172;5.378;2023-01-10T04:48:49;9.30;99.90
7958;DHT22;4024;52.172;5.378;2023-01-10T04:51:15;9.30;99.90
7958;DHT22;4024;52.172;5.378;2023-01-10T04:53:41;9.30;99.90
7958;DHT22;4024;52.172;5.378;2023-01-10T04:56:09;9.30;99.90
7958;DHT22;4024;52.172;5.378;2023-01-10T04:58:37;9.30;99.90
7958;DHT22;4024;52.172;5.378;2023-01-10T05:01:15;9.30;99.90
7958;DHT22;4024;52.172;5.378;2023-01-10T05:03:41;9.30;99.90
7958;DHT22;4024;52.172;5.378;2023-01-10T05:06:07;9.30;99.90
7958;DHT22;4024;52.172;5.378;2023-01-10T05:08:33;9.30;99.90
7958;DHT22;4024;52.172;5.378;2023-01-10T05:10:59;9.30;99.90
7958;DHT22;4024;52.172;5.378;2023-01-10T05:13:25;9.30;99.90
7958;DHT22;4024;52.172;5.378;2023-01-10T05:15:55;9.30;99.90
7958;DHT22;4024;52.172;5.378;2023-01-10T05:18:22;9.30;99.90
7958;DHT22;4024;52.172;5.378;2023-01-10T05:20:48;9.30;99.90
7958;DHT22;4024;52.172;5.378;2023-01-10T05:23:14;9.30;99.90
7958;DHT22;4024;52.172;5.378;2023-01-10T05:25:39;9.20;99.90
7958;DHT22;4024;52.172;5.378;2023-01-10T05:28:05;9.20;99.90
7958;DHT22;4024;52.172;5.378;2023-01-10T05:30:30;9.20;99.90
7958;DHT22;4024;52.172;5.378;2023-01-10T05:32:56;9.10;99.90
7958;DHT22;4024;52.172;5.378;2023-01-10T05:35:22;9.00;99.90
7958;DHT22;4024;52.172;5.378;2023-01-10T05:37:47;9.00;99.90
7958;DHT22;4024;52.172;5.378;2023-01-10T05:40:13;8.90;99.90
7958;DHT22;4024;52.172;5.378;2023-01-10T05:42:38;8.90;99.90
7958;DHT22;4024;52.172;5.378;2023-01-10T05:45:04;8.80;99.90
7958;DHT22;4024;52.172;5.378;2023-01-10T05:47:30;8.80;99.90
7958;DHT22;4024;52.172;5.378;2023-01-10T05:49:56;8.80;99.90
7958;DHT22;4024;52.172;5.378;2023-01-10T05:52:21;8.70;99.90
7958;DHT22;4024;52.172;5.378;2023-01-10T05:54:47;8.70;99.90
7958;DHT22;4024;52.172;5.378;2023-01-10T05:57:13;8.70;99.90
7958;DHT22;4024;52.172;5.378;2023-01-10T05:59:38;8.60;99.90
7958;DHT22;4024;52.172;5.378;2023-01-10T06:02:04;8.60;99.90
7958;DHT22;4024;52.172;5.378;2023-01-10T06:04:30;8.60;99.90
7958;DHT22;4024;52.172;5.378;2023-01-10T06:06:56;8.60;99.90
7958;DHT22;4024;52.172;5.378;2023-01-10T06:09:22;8.60;99.90
7958;DHT22;4024;52.172;5.378;2023-01-10T06:11:47;8.70;99.90
7958;DHT22;4024;52.172;5.378;2023-01-10T06:14:13;8.60;99.90
7958;DHT22;4024;52.172;5.378;2023-01-10T06:16:46;8.60;99.90
7958;DHT22;4024;52.172;5.378;2023-01-10T06:19:12;8.70;99.90
7958;DHT22;4024;52.172;5.378;2023-01-10T06:21:37;8.70;99.90
7958;DHT22;4024;52.172;5.378;2023-01-10T06:24:03;8.70;99.90
7958;DHT22;4024;52.172;5.378;2023-01-10T06:26:29;8.70;99.90
7958;DHT22;4024;52.172;5.378;2023-01-10T06:28:54;8.70;99.90
7958;DHT22;4024;52.172;5.378;2023-01-10T06:31:20;8.70;99.90
7958;DHT22;4024;52.172;5.378;2023-01-10T06:33:49;8.80;99.90
7958;DHT22;4024;52.172;5.378;2023-01-10T06:36:15;8.80;99.90
7958;DHT22;4024;52.172;5.378;2023-01-10T06:38:40;8.80;99.90
7958;DHT22;4024;52.172;5.378;2023-01-10T06:41:06;8.80;99.90
7958;DHT22;4024;52.172;5.378;2023-01-10T06:43:42;8.80;99.90
7958;DHT22;4024;52.172;5.378;2023-01-10T06:46:09;8.80;99.90
7958;DHT22;4024;52.172;5.378;2023-01-10T06:48:36;8.90;99.90
7958;DHT22;4024;52.172;5.378;2023-01-10T06:51:03;8.90;99.90
7958;DHT22;4024;52.172;5.378;2023-01-10T06:53:29;8.90;99.90
7958;DHT22;4024;52.172;5.378;2023-01-10T06:55:55;8.90;99.90
7958;DHT22;4024;52.172;5.378;2023-01-10T06:58:22;9.00;99.90
7958;DHT22;4024;52.172;5.378;2023-01-10T07:00:48;9.00;99.90
7958;DHT22;4024;52.172;5.378;2023-01-10T07:03:13;9.00;99.90
7958;DHT22;4024;52.172;5.378;2023-01-10T07:05:39;9.00;99.90
7958;DHT22;4024;52.172;5.378;2023-01-10T07:08:05;8.90;99.90
7958;DHT22;4024;52.172;5.378;2023-01-10T07:10:30;9.00;99.90
7958;DHT22;4024;52.172;5.378;2023-01-10T07:12:56;9.00;99.90
7958;DHT22;4024;52.172;5.378;2023-01-10T07:15:23;9.00;99.90
7958;DHT22;4024;52.172;5.378;2023-01-10T07:17:49;9.00;99.90
7958;DHT22;4024;52.172;5.378;2023-01-10T07:20:15;9.00;99.90
7958;DHT22;4024;52.172;5.378;2023-01-10T07:22:41;9.00;99.90
7958;DHT22;4024;52.172;5.378;2023-01-10T07:25:07;9.00;99.90
7958;DHT22;4024;52.172;5.378;2023-01-10T07:27:33;9.10;99.90
7958;DHT22;4024;52.172;5.378;2023-01-10T07:29:59;9.10;99.90
7958;DHT22;4024;52.172;5.378;2023-01-10T07:32:25;9.10;99.90
7958;DHT22;4024;52.172;5.378;2023-01-10T07:34:50;9.10;99.90
7958;DHT22;4024;52.172;5.378;2023-01-10T07:37:16;9.10;99.90
7958;DHT22;4024;52.172;5.378;2023-01-10T07:39:42;9.10;99.90
7958;DHT22;4024;52.172;5.378;2023-01-10T07:42:08;9.10;99.90
7958;DHT22;4024;52.172;5.378;2023-01-10T07:44:34;9.10;99.90
7958;DHT22;4024;52.172;5.378;2023-01-10T07:47:00;9.10;99.90
7958;DHT22;4024;52.172;5.378;2023-01-10T07:49:25;9.20;99.90
7958;DHT22;4024;52.172;5.378;2023-01-10T07:51:51;9.10;99.90
7958;DHT22;4024;52.172;5.378;2023-01-10T07:54:16;9.10;99.90
7958;DHT22;4024;52.172;5.378;2023-01-10T07:56:42;9.10;99.90
7958;DHT22;4024;52.172;5.378;2023-01-10T07:59:08;9.20;99.90
7958;DHT22;4024;52.172;5.378;2023-01-10T08:01:33;9.10;99.90
7958;DHT22;4024;52.172;5.378;2023-01-10T08:03:59;9.10;99.90
7958;DHT22;4024;52.172;5.378;2023-01-10T08:06:25;9.10;99.90
7958;DHT22;4024;52.172;5.378;2023-01-10T08:08:50;9.10;99.90
7958;DHT22;4024;52.172;5.378;2023-01-10T08:11:16;9.10;99.90
7958;DHT22;4024;52.172;5.378;2023-01-10T08:13:41;9.00;99.90
7958;DHT22;4024;52.172;5.378;2023-01-10T08:16:07;9.00;99.90
7958;DHT22;4024;52.172;5.378;2023-01-10T08:18:33;9.00;99.90
7958;DHT22;4024;52.172;5.378;2023-01-10T08:20:58;9.00;99.90
7958;DHT22;4024;52.172;5.378;2023-01-10T08:23:25;9.00;99.90
7958;DHT22;4024;52.172;5.378;2023-01-10T08:25:51;8.90;99.90
7958;DHT22;4024;52.172;5.378;2023-01-10T08:28:17;8.90;99.90
7958;DHT22;4024;52.172;5.378;2023-01-10T08:30:43;8.90;99.90
7958;DHT22;4024;52.172;5.378;2023-01-10T08:33:10;8.80;99.90
7958;DHT22;4024;52.172;5.378;2023-01-10T08:35:40;8.80;99.90
7958;DHT22;4024;52.172;5.378;2023-01-10T08:38:07;8.80;99.90
7958;DHT22;4024;52.172;5.378;2023-01-10T08:40:34;8.70;99.90
7958;DHT22;4024;52.172;5.378;2023-01-10T08:43:02;8.70;99.90
7958;DHT22;4024;52.172;5.378;2023-01-10T08:45:28;8.70;99.90
7958;DHT22;4024;52.172;5.378;2023-01-10T08:47:54;8.70;99.90
7958;DHT22;4024;52.172;5.378;2023-01-10T08:50:21;8.70;99.90
7958;DHT22;4024;52.172;5.378;2023-01-10T08:52:46;8.70;99.90
7958;DHT22;4024;52.172;5.378;2023-01-10T08:55:12;8.60;99.90
7958;DHT22;4024;52.172;5.378;2023-01-10T08:57:38;8.60;99.90
7958;DHT22;4024;52.172;5.378;2023-01-10T09:00:04;8.60;99.90
7958;DHT22;4024;52.172;5.378;2023-01-10T09:02:30;8.60;99.90
7958;DHT22;4024;52.172;5.378;2023-01-10T09:04:55;8.60;99.90
7958;DHT22;4024;52.172;5.378;2023-01-10T09:07:21;8.60;99.90
7958;DHT22;4024;52.172;5.378;2023-01-10T09:09:46;8.60;99.90
7958;DHT22;4024;52.172;5.378;2023-01-10T09:12:12;8.70;99.90
7958;DHT22;4024;52.172;5.378;2023-01-10T09:14:56;8.60;99.90
7958;DHT22;4024;52.172;5.378;2023-01-10T09:17:22;8.60;99.90
7958;DHT22;4024;52.172;5.378;2023-01-10T09:19:48;8.70;99.90
7958;DHT22;4024;52.172;5.378;2023-01-10T09:22:14;8.70;99.90
7958;DHT22;4024;52.172;5.378;2023-01-10T09:24:40;8.70;99.90
7958;DHT22;4024;52.172;5.378;2023-01-10T09:27:09;8.70;99.90
7958;DHT22;4024;52.172;5.378;2023-01-10T09:29:35;8.70;99.90
7958;DHT22;4024;52.172;5.378;2023-01-10T09:32:00;8.70;99.90
7958;DHT22;4024;52.172;5.378;2023-01-10T09:34:26;8.70;99.90
7958;DHT22;4024;52.172;5.378;2023-01-10T09:36:53;8.70;99.90
7958;DHT22;4024;52.172;5.378;2023-01-10T09:39:19;8.70;99.90
7958;DHT22;4024;52.172;5.378;2023-01-10T09:52:28;8.70;99.90
7958;DHT22;4024;52.172;5.378;2023-01-10T09:54:56;8.70;99.90
7958;DHT22;4024;52.172;5.378;2023-01-10T09:57:24;8.70;99.90
7958;DHT22;4024;52.172;5.378;2023-01-10T09:59:50;8.80;99.90
7958;DHT22;4024;52.172;5.378;2023-01-10T10:02:33;8.80;99.90
7958;DHT22;4024;52.172;5.378;2023-01-10T10:05:22;8.80;99.90
7958;DHT22;4024;52.172;5.378;2023-01-10T10:07:56;8.80;99.90
7958;DHT22;4024;52.172;5.378;2023-01-10T10:10:26;8.80;99.90
7958;DHT22;4024;52.172;5.378;2023-01-10T10:15:53;8.80;99.90
7958;DHT22;4024;52.172;5.378;2023-01-10T10:18:43;8.80;99.90
7958;DHT22;4024;52.172;5.378;2023-01-10T10:24:08;8.80;99.90
7958;DHT22;4024;52.172;5.378;2023-01-10T10:35:14;8.80;99.90
7958;DHT22;4024;52.172;5.378;2023-01-10T10:37:50;8.80;99.90
7958;DHT22;4024;52.172;5.378;2023-01-10T10:40:19;8.80;99.90
7958;DHT22;4024;52.172;5.378;2023-01-10T10:42:51;8.80;99.90
7958;DHT22;4024;52.172;5.378;2023-01-10T10:47:50;8.90;99.90
7958;DHT22;4024;52.172;5.378;2023-01-10T10:50:24;8.90;99.90
7958;DHT22;4024;52.172;5.378;2023-01-10T10:52:53;8.90;99.90
7958;DHT22;4024;52.172;5.378;2023-01-10T10:55:28;8.80;99.90
7958;DHT22;4024;52.172;5.378;2023-01-10T10:57:55;8.90;99.90
7958;DHT22;4024;52.172;5.378;2023-01-10T11:00:21;8.90;99.90
7958;DHT22;4024;52.172;5.378;2023-01-10T11:03:23;8.90;99.90
7958;DHT22;4024;52.172;5.378;2023-01-10T11:05:50;8.90;99.90
7958;DHT22;4024;52.172;5.378;2023-01-10T11:08:16;8.90;99.90
7958;DHT22;4024;52.172;5.378;2023-01-10T11:10:54;8.90;99.90
7958;DHT22;4024;52.172;5.378;2023-01-10T11:13:29;8.90;99.90
7958;DHT22;4024;52.172;5.378;2023-01-10T11:16:01;8.90;99.90
7958;DHT22;4024;52.172;5.378;2023-01-10T11:18:29;8.90;99.90
7958;DHT22;4024;52.172;5.378;2023-01-10T11:20:59;8.90;99.90
7958;DHT22;4024;52.172;5.378;2023-01-10T11:26:00;8.90;99.90
7958;DHT22;4024;52.172;5.378;2023-01-10T11:28:29;8.90;99.90
7958;DHT22;4024;52.172;5.378;2023-01-10T11:30:56;8.90;99.90
7958;DHT22;4024;52.172;5.378;2023-01-10T11:33:29;8.90;99.90
7958;DHT22;4024;52.172;5.378;2023-01-10T11:36:04;8.90;99.90
7958;DHT22;4024;52.172;5.378;2023-01-10T11:38:31;9.00;99.90
7958;DHT22;4024;52.172;5.378;2023-01-10T11:41:02;9.00;99.90
7958;DHT22;4024;52.172;5.378;2023-01-10T11:43:35;9.00;99.90
7958;DHT22;4024;52.172;5.378;2023-01-10T11:46:05;9.00;99.90
7958;DHT22;4024;52.172;5.378;2023-01-10T11:48:42;9.00;99.90
7958;DHT22;4024;52.172;5.378;2023-01-10T11:53:43;9.00;99.90
7958;DHT22;4024;52.172;5.378;2023-01-10T11:56:14;9.10;99.90
7958;DHT22;4024;52.172;5.378;2023-01-10T11:58:46;9.10;99.90
7958;DHT22;4024;52.172;5.378;2023-01-10T12:01:33;9.10;99.90
7958;DHT22;4024;52.172;5.378;2023-01-10T12:04:01;9.10;99.90
7958;DHT22;4024;52.172;5.378;2023-01-10T12:06:27;9.10;99.90
7958;DHT22;4024;52.172;5.378;2023-01-10T12:08:53;9.10;99.90
7958;DHT22;4024;52.172;5.378;2023-01-10T12:13:54;9.10;99.90
7958;DHT22;4024;52.172;5.378;2023-01-10T12:16:27;9.20;99.90
7958;DHT22;4024;52.172;5.378;2023-01-10T12:18:57;9.20;99.90
7958;DHT22;4024;52.172;5.378;2023-01-10T12:21:48;9.20;99.90
7958;DHT22;4024;52.172;5.378;2023-01-10T12:24:35;9.20;99.90
7958;DHT22;4024;52.172;5.378;2023-01-10T12:27:04;9.20;99.90
7958;DHT22;4024;52.172;5.378;2023-01-10T12:29:38;9.20;99.90
7958;DHT22;4024;52.172;5.378;2023-01-10T12:32:17;9.30;99.90
7958;DHT22;4024;52.172;5.378;2023-01-10T12:34:49;9.20;99.90
7958;DHT22;4024;52.172;5.378;2023-01-10T12:37:30;9.20;99.90
7958;DHT22;4024;52.172;5.378;2023-01-10T12:42:54;9.30;99.90
7958;DHT22;4024;52.172;5.378;2023-01-10T12:48:18;9.30;99.90
7958;DHT22;4024;52.172;5.378;2023-01-10T12:50:51;9.30;99.90
7958;DHT22;4024;52.172;5.378;2023-01-10T12:53:27;9.30;99.90
7958;DHT22;4024;52.172;5.378;2023-01-10T12:55:56;9.30;99.90
7958;DHT22;4024;52.172;5.378;2023-01-10T12:58:29;9.40;99.90
7958;DHT22;4024;52.172;5.378;2023-01-10T13:00:58;9.30;99.90
7958;DHT22;4024;52.172;5.378;2023-01-10T13:03:27;9.40;99.90
7958;DHT22;4024;52.172;5.378;2023-01-10T13:05:56;9.30;99.90
7958;DHT22;4024;52.172;5.378;2023-01-10T13:08:25;9.40;99.90
7958;DHT22;4024;52.172;5.378;2023-01-10T13:10:53;9.40;99.90
7958;DHT22;4024;52.172;5.378;2023-01-10T13:13:33;9.40;99.90
7958;DHT22;4024;52.172;5.378;2023-01-10T13:21:37;9.40;99.90
7958;DHT22;4024;52.172;5.378;2023-01-10T13:24:24;9.40;99.90
7958;DHT22;4024;52.172;5.378;2023-01-10T13:26:57;9.40;99.90
7958;DHT22;4024;52.172;5.378;2023-01-10T13:29:25;9.40;99.90
7958;DHT22;4024;52.172;5.378;2023-01-10T13:31:54;9.40;99.90
7958;DHT22;4024;52.172;5.378;2023-01-10T13:34:26;9.40;99.90
7958;DHT22;4024;52.172;5.378;2023-01-10T13:37:03;9.50;99.90
7958;DHT22;4024;52.172;5.378;2023-01-10T13:39:43;9.50;99.90
7958;DHT22;4024;52.172;5.378;2023-01-10T14:03:46;9.60;99.90
7958;DHT22;4024;52.172;5.378;2023-01-10T14:11:21;9.60;99.90
7958;DHT22;4024;52.172;5.378;2023-01-10T14:13:52;9.60;99.90
7958;DHT22;4024;52.172;5.378;2023-01-10T14:16:37;9.60;99.90
7958;DHT22;4024;52.172;5.378;2023-01-10T14:19:22;9.60;99.90
7958;DHT22;4024;52.172;5.378;2023-01-10T14:21:51;9.60;99.90
7958;DHT22;4024;52.172;5.378;2023-01-10T14:24:28;9.60;99.90
7958;DHT22;4024;52.172;5.378;2023-01-10T14:26:58;9.60;99.90
7958;DHT22;4024;52.172;5.378;2023-01-10T14:29:28;9.60;99.90
7958;DHT22;4024;52.172;5.378;2023-01-10T14:31:58;9.60;99.90
7958;DHT22;4024;52.172;5.378;2023-01-10T14:34:29;9.50;99.90
7958;DHT22;4024;52.172;5.378;2023-01-10T14:37:01;9.50;99.90
7958;DHT22;4024;52.172;5.378;2023-01-10T14:39:28;9.50;99.90
7958;DHT22;4024;52.172;5.378;2023-01-10T14:41:58;9.50;99.90
7958;DHT22;4024;52.172;5.378;2023-01-10T14:44:36;9.40;99.90
7958;DHT22;4024;52.172;5.378;2023-01-10T14:47:20;9.40;99.90
7958;DHT22;4024;52.172;5.378;2023-01-10T14:49:49;9.30;99.90
7958;DHT22;4024;52.172;5.378;2023-01-10T14:52:25;9.30;99.90
7958;DHT22;4024;52.172;5.378;2023-01-10T14:55:14;9.30;99.90
7958;DHT22;4024;52.172;5.378;2023-01-10T14:57:59;9.20;99.90
7958;DHT22;4024;52.172;5.378;2023-01-10T15:00:30;9.20;99.90
7958;DHT22;4024;52.172;5.378;2023-01-10T15:02:58;9.20;99.90
7958;DHT22;4024;52.172;5.378;2023-01-10T15:05:27;9.20;99.90
7958;DHT22;4024;52.172;5.378;2023-01-10T15:07:55;9.20;99.90
7958;DHT22;4024;52.172;5.378;2023-01-10T15:10:42;9.20;99.90
7958;DHT22;4024;52.172;5.378;2023-01-10T15:13:13;9.10;99.90
7958;DHT22;4024;52.172;5.378;2023-01-10T15:15:40;9.10;99.90
7958;DHT22;4024;52.172;5.378;2023-01-10T15:18:32;9.00;99.90
7958;DHT22;4024;52.172;5.378;2023-01-10T15:21:00;9.00;99.90
7958;DHT22;4024;52.172;5.378;2023-01-10T15:23:37;9.00;99.90
7958;DHT22;4024;52.172;5.378;2023-01-10T15:26:09;8.90;99.90
7958;DHT22;4024;52.172;5.378;2023-01-10T15:28:35;9.00;99.90
7958;DHT22;4024;52.172;5.378;2023-01-10T15:31:05;8.90;99.90
7958;DHT22;4024;52.172;5.378;2023-01-10T15:33:33;8.90;99.90
7958;DHT22;4024;52.172;5.378;2023-01-10T15:36:11;8.90;99.90
7958;DHT22;4024;52.172;5.378;2023-01-10T15:38:42;8.90;99.90
7958;DHT22;4024;52.172;5.378;2023-01-10T15:41:08;8.90;99.90
7958;DHT22;4024;52.172;5.378;2023-01-10T15:43:35;8.90;99.90
7958;DHT22;4024;52.172;5.378;2023-01-10T15:46:03;8.90;99.90
7958;DHT22;4024;52.172;5.378;2023-01-10T15:48:39;8.80;99.90
7958;DHT22;4024;52.172;5.378;2023-01-10T15:51:12;8.80;99.90
7958;DHT22;4024;52.172;5.378;2023-01-10T15:54:03;8.80;99.90
7958;DHT22;4024;52.172;5.378;2023-01-10T15:56:34;8.80;99.90
7958;DHT22;4024;52.172;5.378;2023-01-10T15:59:02;8.80;99.90
7958;DHT22;4024;52.172;5.378;2023-01-10T16:01:30;8.80;99.90
7958;DHT22;4024;52.172;5.378;2023-01-10T16:03:58;8.80;99.90
7958;DHT22;4024;52.172;5.378;2023-01-10T16:06:29;8.70;99.90
7958;DHT22;4024;52.172;5.378;2023-01-10T16:08:58;8.70;99.90
7958;DHT22;4024;52.172;5.378;2023-01-10T16:14:15;8.70;99.90
7958;DHT22;4024;52.172;5.378;2023-01-10T16:16:41;8.70;99.90
7958;DHT22;4024;52.172;5.378;2023-01-10T16:19:06;8.70;99.90
7958;DHT22;4024;52.172;5.378;2023-01-10T16:21:37;8.70;99.90
7958;DHT22;4024;52.172;5.378;2023-01-10T16:24:04;8.70;99.90
7958;DHT22;4024;52.172;5.378;2023-01-10T16:26:30;8.70;99.90
7958;DHT22;4024;52.172;5.378;2023-01-10T16:28:56;8.70;99.90
7958;DHT22;4024;52.172;5.378;2023-01-10T16:31:21;8.70;99.90
7958;DHT22;4024;52.172;5.378;2023-01-10T16:33:47;8.70;99.90
7958;DHT22;4024;52.172;5.378;2023-01-10T16:36:15;8.60;99.90
7958;DHT22;4024;52.172;5.378;2023-01-10T16:38:41;8.60;99.90
7958;DHT22;4024;52.172;5.378;2023-01-10T16:41:11;8.60;99.90
7958;DHT22;4024;52.172;5.378;2023-01-10T16:43:56;8.70;99.90
7958;DHT22;4024;52.172;5.378;2023-01-10T16:46:22;8.70;99.90
7958;DHT22;4024;52.172;5.378;2023-01-10T16:48:48;8.60;99.90
7958;DHT22;4024;52.172;5.378;2023-01-10T16:51:28;8.60;99.90
7958;DHT22;4024;52.172;5.378;2023-01-10T16:53:56;8.50;99.90
7958;DHT22;4024;52.172;5.378;2023-01-10T16:56:25;8.60;99.90
7958;DHT22;4024;52.172;5.378;2023-01-10T16:58:52;8.50;99.90
7958;DHT22;4024;52.172;5.378;2023-01-10T17:01:21;8.50;99.90
7958;DHT22;4024;52.172;5.378;2023-01-10T17:03:48;8.50;99.90
7958;DHT22;4024;52.172;5.378;2023-01-10T17:06:14;8.50;99.90
7958;DHT22;4024;52.172;5.378;2023-01-10T17:08:41;8.50;99.90
7958;DHT22;4024;52.172;5.378;2023-01-10T17:11:12;8.50;99.90
7958;DHT22;4024;52.172;5.378;2023-01-10T17:13:41;8.40;99.90
7958;DHT22;4024;52.172;5.378;2023-01-10T17:16:07;8.50;99.90
7958;DHT22;4024;52.172;5.378;2023-01-10T17:18:33;8.50;99.90
7958;DHT22;4024;52.172;5.378;2023-01-10T17:20:59;8.50;99.90
7958;DHT22;4024;52.172;5.378;2023-01-10T17:23:25;8.50;99.90
7958;DHT22;4024;52.172;5.378;2023-01-10T17:25:58;8.50;99.90
7958;DHT22;4024;52.172;5.378;2023-01-10T17:28:24;8.50;99.90
7958;DHT22;4024;52.172;5.378;2023-01-10T17:30:51;8.50;99.90
7958;DHT22;4024;52.172;5.378;2023-01-10T17:33:16;8.50;99.90
7958;DHT22;4024;52.172;5.378;2023-01-10T17:35:43;8.50;99.90
7958;DHT22;4024;52.172;5.378;2023-01-10T17:38:10;8.50;99.90
7958;DHT22;4024;52.172;5.378;2023-01-10T17:40:40;8.50;99.90
7958;DHT22;4024;52.172;5.378;2023-01-10T17:43:06;8.50;99.90
7958;DHT22;4024;52.172;5.378;2023-01-10T17:45:31;8.50;99.90
7958;DHT22;4024;52.172;5.378;2023-01-10T17:47:57;8.50;99.90
7958;DHT22;4024;52.172;5.378;2023-01-10T17:50:23;8.50;99.90
7958;DHT22;4024;52.172;5.378;2023-01-10T17:52:49;8.50;99.90
7958;DHT22;4024;52.172;5.378;2023-01-10T17:55:15;8.50;99.90
7958;DHT22;4024;52.172;5.378;2023-01-10T17:57:40;8.60;99.90
7958;DHT22;4024;52.172;5.378;2023-01-10T18:00:06;8.60;99.90
7958;DHT22;4024;52.172;5.378;2023-01-10T18:02:32;8.60;99.90
7958;DHT22;4024;52.172;5.378;2023-01-10T18:04:58;8.60;99.90
7958;DHT22;4024;52.172;5.378;2023-01-10T18:07:23;8.60;99.90
7958;DHT22;4024;52.172;5.378;2023-01-10T18:09:50;8.60;99.90
7958;DHT22;4024;52.172;5.378;2023-01-10T18:12:17;8.60;99.90
7958;DHT22;4024;52.172;5.378;2023-01-10T18:14:42;8.70;99.90
7958;DHT22;4024;52.172;5.378;2023-01-10T18:17:10;8.70;99.90
7958;DHT22;4024;52.172;5.378;2023-01-10T18:19:36;8.70;99.90
7958;DHT22;4024;52.172;5.378;2023-01-10T18:22:04;8.70;99.90
7958;DHT22;4024;52.172;5.378;2023-01-10T18:24:52;8.70;99.90
7958;DHT22;4024;52.172;5.378;2023-01-10T18:27:19;8.70;99.90
7958;DHT22;4024;52.172;5.378;2023-01-10T18:29:45;8.80;99.90